Time;durP1;ratioP1;P1;durP2;ratioP2;P2;SDS_P1;SDS_P2;PMS_P1;PMS_P2;Temp;Humidity;BMP_temperature;BMP_pressure;BME280_temperature;BME280_humidity;BME280_pressure;Samples;Min_cycle;Max_cycle;Signal;HPM_P1;HPM_P2
2022/04/23 00:01:35;;;;;;;8.65;5.03;;;;;;;;;;5036271;28;20063;-73
2022/04/23 00:04:01;;;;;;;11.60;5.38;;;;;;;;;;5046343;28;20072;-73
2022/04/23 00:06:27;;;;;;;11.32;7.10;;;;;;;;;;5043007;28;20422;-73
2022/04/23 00:08:53;;;;;;;12.85;5.07;;;;;;;;;;5042641;28;20086;-73
2022/04/23 00:11:19;;;;;;;10.13;4.25;;;;;;;;;;5039049;28;20037;-73
2022/04/23 00:13:45;;;;;;;6.32;3.45;;;;;;;;;;5035329;28;20390;-73
2022/04/23 00:16:14;;;;;;;8.65;2.78;;;;;;;;;;5040733;28;20493;-73
2022/04/23 00:18:40;;;;;;;7.32;2.95;;;;;;;;;;5042231;28;20033;-73
2022/04/23 00:21:07;;;;;;;10.45;2.75;;;;;;;;;;5036969;28;20470;-73
2022/04/23 00:23:33;;;;;;;7.18;2.97;;;;;;;;;;5037485;28;20030;-73
2022/04/23 00:26:01;;;;;;;5.25;2.20;;;;;;;;;;5040148;28;20030;-73
2022/04/23 00:28:27;;;;;;;4.97;2.55;;;;;;;;;;5045029;28;20052;-73
2022/04/23 00:30:53;;;;;;;5.70;2.47;;;;;;;;;;5043909;28;20037;-72
2022/04/23 00:33:20;;;;;;;6.35;2.30;;;;;;;;;;5039325;28;20139;-73
2022/04/23 00:35:48;;;;;;;7.18;2.72;;;;;;;;;;5044628;28;20112;-73
2022/04/23 00:38:16;;;;;;;8.27;2.80;;;;;;;;;;5046341;28;20025;-73
2022/04/23 00:40:43;;;;;;;4.68;2.65;;;;;;;;;;5033836;28;20049;-72
2022/04/23 00:43:13;;;;;;;6.60;2.70;;;;;;;;;;5045682;28;20025;-72
2022/04/23 00:45:41;;;;;;;8.25;3.47;;;;;;;;;;5041362;28;20642;-72
2022/04/23 00:48:07;;;;;;;6.70;2.58;;;;;;;;;;5041002;28;20028;-73
2022/04/23 00:50:33;;;;;;;5.65;2.80;;;;;;;;;;5041925;28;20086;-72
2022/04/23 00:53:03;;;;;;;6.00;2.67;;;;;;;;;;5036504;28;20413;-73
2022/04/23 00:55:31;;;;;;;5.72;2.80;;;;;;;;;;5040800;28;20045;-72
2022/04/23 00:57:58;;;;;;;8.15;2.47;;;;;;;;;;5036965;28;20028;-73
2022/04/23 01:00:25;;;;;;;6.25;2.72;;;;;;;;;;5043320;28;20083;-73
2022/04/23 01:02:54;;;;;;;6.25;2.85;;;;;;;;;;5032300;28;20045;-72
2022/04/23 01:05:23;;;;;;;6.85;3.20;;;;;;;;;;5040517;28;20054;-72
2022/04/23 01:07:50;;;;;;;5.82;2.30;;;;;;;;;;5037413;28;20030;-72
2022/04/23 01:10:16;;;;;;;5.80;2.42;;;;;;;;;;5040677;28;20500;-73
2022/04/23 01:12:44;;;;;;;5.72;2.28;;;;;;;;;;5036979;28;20859;-73
2022/04/23 01:15:11;;;;;;;5.50;2.55;;;;;;;;;;5039663;28;20037;-73
2022/04/23 01:17:38;;;;;;;7.30;2.65;;;;;;;;;;5036894;28;20037;-73
2022/04/23 01:20:05;;;;;;;9.00;3.35;;;;;;;;;;5036899;28;20047;-72
2022/04/23 01:22:31;;;;;;;10.75;3.95;;;;;;;;;;5039402;28;20102;-72
2022/04/23 01:24:57;;;;;;;10.52;4.07;;;;;;;;;;5050034;28;20064;-72
2022/04/23 01:27:29;;;;;;;8.93;4.32;;;;;;;;;;5045018;28;20033;-72
2022/04/23 01:29:56;;;;;;;11.45;3.92;;;;;;;;;;5046792;28;20079;-73
2022/04/23 01:32:22;;;;;;;6.18;3.55;;;;;;;;;;5042665;28;20029;-72
2022/04/23 01:34:49;;;;;;;10.48;3.10;;;;;;;;;;5047055;28;20585;-73
2022/04/23 01:37:17;;;;;;;6.65;2.95;;;;;;;;;;5039369;28;20029;-72
2022/04/23 01:39:44;;;;;;;5.55;2.70;;;;;;;;;;5044422;28;20454;-73
2022/04/23 01:42:10;;;;;;;10.77;2.80;;;;;;;;;;5036619;28;20032;-72
2022/04/23 01:44:36;;;;;;;4.05;2.35;;;;;;;;;;5037725;28;20601;-72
2022/04/23 01:47:03;;;;;;;5.13;2.40;;;;;;;;;;5035655;28;20190;-72
2022/04/23 01:49:29;;;;;;;5.50;2.90;;;;;;;;;;5038884;28;20111;-73
2022/04/23 01:51:55;;;;;;;5.35;2.33;;;;;;;;;;5048276;28;20029;-72
2022/04/23 01:54:21;;;;;;;5.47;2.17;;;;;;;;;;5048078;28;20040;-73
2022/04/23 01:56:47;;;;;;;4.60;2.15;;;;;;;;;;5048075;28;20040;-72
2022/04/23 01:59:13;;;;;;;4.63;2.08;;;;;;;;;;5048168;28;20037;-72
2022/04/23 02:01:41;;;;;;;4.10;2.13;;;;;;;;;;5040028;28;20032;-73
2022/04/23 02:04:08;;;;;;;5.82;2.42;;;;;;;;;;5036385;28;20060;-72
2022/04/23 02:06:34;;;;;;;11.05;2.67;;;;;;;;;;5030500;28;20041;-72
2022/04/23 02:09:00;;;;;;;9.20;2.90;;;;;;;;;;5039738;28;20041;-72
2022/04/23 02:11:26;;;;;;;6.88;3.20;;;;;;;;;;5039257;28;20136;-72
2022/04/23 02:13:52;;;;;;;6.43;2.50;;;;;;;;;;5033663;28;20037;-73
2022/04/23 02:16:18;;;;;;;5.70;2.22;;;;;;;;;;5041677;28;20039;-72
2022/04/23 02:18:45;;;;;;;6.88;2.22;;;;;;;;;;5037103;28;20045;-73
2022/04/23 02:21:11;;;;;;;6.28;2.63;;;;;;;;;;5039290;28;20037;-72
2022/04/23 02:23:37;;;;;;;4.93;2.28;;;;;;;;;;5039274;28;20199;-72
2022/04/23 02:26:05;;;;;;;6.32;2.50;;;;;;;;;;5046317;28;20054;-72
2022/04/23 02:28:31;;;;;;;5.47;2.50;;;;;;;;;;5035490;28;20029;-72
2022/04/23 02:30:57;;;;;;;4.97;2.22;;;;;;;;;;5037057;28;20029;-72
2022/04/23 02:33:23;;;;;;;5.90;2.20;;;;;;;;;;5037155;28;20037;-72
2022/04/23 02:35:50;;;;;;;6.75;1.92;;;;;;;;;;5042020;28;20044;-72
2022/04/23 02:38:17;;;;;;;5.65;2.30;;;;;;;;;;5043995;28;20033;-73
2022/04/23 02:40:43;;;;;;;5.93;2.35;;;;;;;;;;5042803;28;20099;-73
2022/04/23 02:43:12;;;;;;;9.90;3.03;;;;;;;;;;5035143;28;20038;-72
2022/04/23 02:45:38;;;;;;;4.70;2.55;;;;;;;;;;5027388;28;20021;-73
2022/04/23 02:48:04;;;;;;;7.15;3.03;;;;;;;;;;5044400;28;20037;-73
2022/04/23 02:50:30;;;;;;;6.43;3.10;;;;;;;;;;5047539;28;20028;-73
2022/04/23 02:52:57;;;;;;;6.85;3.88;;;;;;;;;;5043537;28;20048;-72
2022/04/23 02:55:24;;;;;;;7.78;2.90;;;;;;;;;;5046147;28;20095;-73
2022/04/23 02:57:50;;;;;;;6.40;3.20;;;;;;;;;;5047557;28;20029;-72
2022/04/23 03:00:17;;;;;;;6.28;3.00;;;;;;;;;;5044978;28;20036;-72
2022/04/23 03:02:44;;;;;;;5.22;2.42;;;;;;;;;;5052088;28;20029;-73
2022/04/23 03:05:20;;;;;;;9.70;3.20;;;;;;;;;;5043282;28;20045;-73
2022/04/23 03:07:46;;;;;;;5.95;3.45;;;;;;;;;;5044956;28;20040;-73
2022/04/23 03:10:13;;;;;;;6.63;3.42;;;;;;;;;;5052517;28;20032;-72
2022/04/23 03:12:39;;;;;;;10.70;5.15;;;;;;;;;;5046174;28;20028;-72
2022/04/23 03:15:06;;;;;;;7.93;4.05;;;;;;;;;;5047968;28;20059;-72
2022/04/23 03:17:32;;;;;;;7.40;4.35;;;;;;;;;;5053543;28;20055;-72
2022/04/23 03:19:59;;;;;;;9.77;4.95;;;;;;;;;;5038980;28;20110;-72
2022/04/23 03:22:26;;;;;;;6.53;3.83;;;;;;;;;;5046236;28;20033;-72
2022/04/23 03:24:52;;;;;;;5.93;3.28;;;;;;;;;;5044645;28;20116;-72
2022/04/23 03:27:18;;;;;;;11.05;3.30;;;;;;;;;;5047006;28;20107;-73
2022/04/23 03:29:44;;;;;;;7.43;3.72;;;;;;;;;;5041301;28;20042;-72
2022/04/23 03:32:10;;;;;;;7.18;4.43;;;;;;;;;;5041885;28;20541;-72
2022/04/23 03:34:37;;;;;;;11.05;3.95;;;;;;;;;;5039113;28;20525;-72
2022/04/23 03:37:03;;;;;;;9.68;4.57;;;;;;;;;;5048022;28;20115;-73
2022/04/23 03:39:29;;;;;;;9.02;4.55;;;;;;;;;;5035661;28;20033;-72
2022/04/23 03:41:55;;;;;;;7.50;4.97;;;;;;;;;;5045683;28;20401;-72
2022/04/23 03:44:22;;;;;;;12.05;5.22;;;;;;;;;;5044763;28;20029;-72
2022/04/23 03:46:48;;;;;;;9.52;4.65;;;;;;;;;;5043542;28;20115;-72
2022/04/23 03:49:14;;;;;;;7.10;4.78;;;;;;;;;;5047171;28;20033;-72
2022/04/23 03:51:41;;;;;;;9.20;6.22;;;;;;;;;;5042666;28;20071;-72
2022/04/23 03:54:07;;;;;;;10.23;5.57;;;;;;;;;;5045731;28;20041;-72
2022/04/23 03:56:33;;;;;;;13.02;5.80;;;;;;;;;;5044684;28;20052;-72
2022/04/23 03:59:00;;;;;;;12.23;7.60;;;;;;;;;;5043212;28;20075;-72
2022/04/23 04:01:27;;;;;;;14.00;7.20;;;;;;;;;;5048706;28;20033;-72
2022/04/23 04:03:53;;;;;;;9.88;6.25;;;;;;;;;;5041420;28;20056;-72
2022/04/23 04:06:19;;;;;;;11.32;5.85;;;;;;;;;;5038000;28;20471;-72
2022/04/23 04:08:50;;;;;;;10.40;6.32;;;;;;;;;;5044904;28;20041;-73
2022/04/23 04:11:16;;;;;;;11.07;7.78;;;;;;;;;;5051879;28;20025;-73
2022/04/23 04:13:42;;;;;;;10.77;6.75;;;;;;;;;;5041613;28;20457;-72
2022/04/23 04:16:08;;;;;;;9.07;6.28;;;;;;;;;;5038390;28;20171;-72
2022/04/23 04:18:34;;;;;;;7.90;5.43;;;;;;;;;;5043381;28;20034;-72
2022/04/23 04:21:01;;;;;;;9.57;5.40;;;;;;;;;;5039116;28;20026;-72
2022/04/23 04:23:27;;;;;;;6.88;4.60;;;;;;;;;;5035599;28;20639;-72
2022/04/23 04:25:53;;;;;;;8.77;4.68;;;;;;;;;;5042994;28;20025;-72
2022/04/23 04:28:20;;;;;;;11.15;4.97;;;;;;;;;;5034838;28;20542;-72
2022/04/23 04:33:31;;;;;;;10.82;5.13;;;;;;;;;;5040871;28;20607;-72
2022/04/23 04:35:57;;;;;;;8.43;6.03;;;;;;;;;;5039919;28;20033;-72
2022/04/23 04:38:23;;;;;;;9.63;5.68;;;;;;;;;;5041929;28;20041;-73
2022/04/23 04:40:49;;;;;;;10.60;6.45;;;;;;;;;;5041841;28;20082;-72
2022/04/23 04:43:15;;;;;;;13.32;8.02;;;;;;;;;;5046443;28;20040;-72
2022/04/23 04:45:41;;;;;;;14.07;12.05;;;;;;;;;;5033191;28;20025;-72
2022/04/23 04:48:07;;;;;;;13.85;12.02;;;;;;;;;;5040728;28;20457;-73
2022/04/23 04:50:33;;;;;;;13.63;10.15;;;;;;;;;;5040743;28;20063;-72
2022/04/23 04:52:59;;;;;;;14.18;8.82;;;;;;;;;;5042139;28;20040;-72
2022/04/23 04:55:25;;;;;;;15.38;6.40;;;;;;;;;;5045223;28;20029;-72
2022/04/23 04:57:51;;;;;;;10.45;6.43;;;;;;;;;;5041640;28;20044;-72
2022/04/23 05:00:20;;;;;;;13.63;7.88;;;;;;;;;;5041265;28;20037;-73
2022/04/23 05:02:46;;;;;;;9.77;6.55;;;;;;;;;;5044696;28;20029;-73
2022/04/23 05:05:12;;;;;;;11.70;6.70;;;;;;;;;;5042080;28;20247;-72
2022/04/23 05:07:38;;;;;;;9.77;7.13;;;;;;;;;;5042622;28;20153;-73
2022/04/23 05:10:04;;;;;;;15.43;9.43;;;;;;;;;;5035926;28;20612;-72
2022/04/23 05:12:30;;;;;;;10.75;7.70;;;;;;;;;;5043595;28;20418;-73
2022/04/23 05:14:56;;;;;;;11.25;7.40;;;;;;;;;;5044900;28;20565;-72
2022/04/23 05:17:22;;;;;;;11.82;6.70;;;;;;;;;;5040244;28;20095;-72
2022/04/23 05:19:48;;;;;;;9.30;5.07;;;;;;;;;;5040969;28;20399;-72
2022/04/23 05:22:14;;;;;;;7.57;5.35;;;;;;;;;;5040424;28;20123;-72
2022/04/23 05:24:40;;;;;;;15.05;7.47;;;;;;;;;;5046398;28;20156;-73
2022/04/23 05:27:06;;;;;;;10.88;7.30;;;;;;;;;;5039716;28;20222;-72
2022/04/23 05:29:32;;;;;;;12.18;8.15;;;;;;;;;;5036645;28;20036;-72
2022/04/23 05:31:58;;;;;;;12.07;7.32;;;;;;;;;;5044964;28;20033;-73
2022/04/23 05:34:28;;;;;;;13.15;6.57;;;;;;;;;;5039933;28;20029;-72
2022/04/23 05:36:54;;;;;;;8.95;6.13;;;;;;;;;;5032282;28;20032;-72
2022/04/23 05:39:20;;;;;;;7.93;6.70;;;;;;;;;;5039023;28;20116;-73
2022/04/23 05:41:46;;;;;;;10.77;7.57;;;;;;;;;;5039325;28;20601;-72
2022/04/23 05:44:12;;;;;;;20.15;8.88;;;;;;;;;;5045079;28;20044;-72
2022/04/23 05:46:38;;;;;;;15.68;9.35;;;;;;;;;;5044457;28;20524;-72
2022/04/23 05:49:04;;;;;;;12.30;9.50;;;;;;;;;;5043694;28;20044;-73
2022/04/23 05:51:30;;;;;;;16.23;11.15;;;;;;;;;;5044712;28;20103;-72
2022/04/23 05:53:56;;;;;;;14.50;12.30;;;;;;;;;;5036281;28;20033;-72
2022/04/23 05:56:22;;;;;;;19.70;12.20;;;;;;;;;;5050960;28;20032;-72
2022/04/23 05:58:48;;;;;;;14.63;11.68;;;;;;;;;;5052804;28;20048;-72
2022/04/23 06:01:14;;;;;;;13.15;10.57;;;;;;;;;;5046672;28;20033;-72
2022/04/23 06:03:41;;;;;;;17.35;11.45;;;;;;;;;;5044680;28;20441;-73
2022/04/23 06:06:07;;;;;;;12.70;10.43;;;;;;;;;;5047100;28;20425;-73
2022/04/23 06:08:33;;;;;;;12.10;9.65;;;;;;;;;;5039116;28;20030;-73
2022/04/23 06:10:59;;;;;;;12.50;8.90;;;;;;;;;;5042271;28;20802;-72
2022/04/23 06:13:25;;;;;;;13.93;7.95;;;;;;;;;;5040210;28;20044;-72
2022/04/23 06:15:51;;;;;;;12.25;7.78;;;;;;;;;;5037161;28;20025;-73
2022/04/23 06:18:17;;;;;;;9.98;7.60;;;;;;;;;;5044141;28;20047;-73
2022/04/23 06:20:43;;;;;;;11.88;7.15;;;;;;;;;;5044071;28;20726;-72
2022/04/23 06:23:09;;;;;;;9.50;5.80;;;;;;;;;;5045852;28;20037;-72
2022/04/23 06:25:36;;;;;;;14.07;9.35;;;;;;;;;;5046937;28;20025;-73
2022/04/23 06:28:02;;;;;;;14.77;10.85;;;;;;;;;;5042341;28;20356;-72
2022/04/23 06:30:28;;;;;;;15.55;12.38;;;;;;;;;;5046856;28;20079;-73
2022/04/23 06:32:54;;;;;;;15.88;11.10;;;;;;;;;;5043761;28;20043;-72
2022/04/23 06:35:20;;;;;;;17.30;13.48;;;;;;;;;;5045541;28;20425;-72
2022/04/23 06:37:47;;;;;;;13.25;10.95;;;;;;;;;;5048762;28;20104;-73
2022/04/23 06:40:13;;;;;;;11.27;9.38;;;;;;;;;;5050269;28;20508;-72
2022/04/23 06:42:40;;;;;;;18.63;11.75;;;;;;;;;;5041714;28;20425;-72
2022/04/23 06:45:06;;;;;;;10.70;7.30;;;;;;;;;;5046759;28;20039;-72
2022/04/23 06:47:32;;;;;;;9.93;7.10;;;;;;;;;;5046290;28;20025;-72
2022/04/23 06:49:59;;;;;;;11.95;8.48;;;;;;;;;;5040223;28;20060;-72
2022/04/23 06:52:25;;;;;;;14.55;9.48;;;;;;;;;;5045088;28;20103;-73
2022/04/23 06:54:54;;;;;;;11.60;8.65;;;;;;;;;;5045233;28;20045;-72
2022/04/23 06:57:23;;;;;;;9.57;7.68;;;;;;;;;;5045863;28;20033;-72
2022/04/23 06:59:50;;;;;;;10.88;7.72;;;;;;;;;;5040833;28;20034;-73
2022/04/23 07:02:16;;;;;;;9.38;7.30;;;;;;;;;;5043016;28;20123;-72
2022/04/23 07:04:43;;;;;;;11.35;7.75;;;;;;;;;;5041791;28;20668;-72
2022/04/23 07:07:10;;;;;;;8.82;5.53;;;;;;;;;;5046534;28;20446;-72
2022/04/23 07:09:36;;;;;;;7.75;5.28;;;;;;;;;;5039613;28;20056;-73
2022/04/23 07:12:02;;;;;;;6.93;4.88;;;;;;;;;;5046949;28;20029;-73
2022/04/23 07:14:28;;;;;;;7.22;5.35;;;;;;;;;;5045763;28;20469;-73
2022/04/23 07:16:54;;;;;;;8.77;4.60;;;;;;;;;;5041447;28;20038;-73
2022/04/23 07:19:20;;;;;;;7.20;4.72;;;;;;;;;;5046340;28;20045;-72
2022/04/23 07:21:46;;;;;;;9.23;5.40;;;;;;;;;;5044393;28;20033;-73
2022/04/23 07:24:13;;;;;;;8.43;5.72;;;;;;;;;;5038090;28;20478;-73
2022/04/23 07:26:40;;;;;;;9.20;5.88;;;;;;;;;;5040927;28;20025;-72
2022/04/23 07:29:07;;;;;;;13.10;5.25;;;;;;;;;;5045624;28;20421;-73
2022/04/23 07:31:34;;;;;;;8.95;5.82;;;;;;;;;;5040376;28;20033;-73
2022/04/23 07:39:30;;;;;;;7.30;5.18;;;;;;;;;;5049917;28;20056;-73
2022/04/23 07:41:56;;;;;;;9.73;6.22;;;;;;;;;;5043290;28;20025;-73
2022/04/23 07:44:22;;;;;;;11.40;5.95;;;;;;;;;;5048315;28;20049;-73
2022/04/23 07:46:49;;;;;;;9.75;6.40;;;;;;;;;;5044787;28;20040;-73
2022/04/23 07:49:15;;;;;;;8.40;5.93;;;;;;;;;;5041496;28;20041;-73
2022/04/23 07:51:46;;;;;;;10.55;5.88;;;;;;;;;;5046748;28;20699;-73
2022/04/23 07:54:13;;;;;;;9.27;6.60;;;;;;;;;;5048812;28;20108;-72
2022/04/23 07:56:39;;;;;;;10.00;6.22;;;;;;;;;;5047708;28;20051;-73
2022/04/23 07:59:05;;;;;;;9.23;5.93;;;;;;;;;;5043176;28;20041;-73
2022/04/23 08:01:31;;;;;;;8.60;5.43;;;;;;;;;;5045793;28;20108;-73
2022/04/23 08:03:58;;;;;;;9.43;6.13;;;;;;;;;;5037247;28;20112;-73
2022/04/23 08:06:24;;;;;;;8.73;5.60;;;;;;;;;;5045036;28;20029;-73
2022/04/23 08:08:50;;;;;;;7.22;5.28;;;;;;;;;;5040691;28;20061;-73
2022/04/23 08:11:16;;;;;;;10.27;5.72;;;;;;;;;;5048037;28;20056;-73
2022/04/23 08:13:43;;;;;;;7.05;5.50;;;;;;;;;;5046811;28;20049;-73
2022/04/23 08:16:09;;;;;;;7.43;5.07;;;;;;;;;;5045310;28;20385;-73
2022/04/23 08:18:35;;;;;;;8.95;4.70;;;;;;;;;;5048326;28;20454;-73
2022/04/23 08:21:01;;;;;;;6.07;4.10;;;;;;;;;;5043476;28;20074;-73
2022/04/23 08:23:27;;;;;;;10.60;4.43;;;;;;;;;;5048803;28;20067;-73
2022/04/23 08:25:56;;;;;;;12.63;5.30;;;;;;;;;;5045767;28;20025;-73
2022/04/23 08:31:07;;;;;;;11.13;5.00;;;;;;;;;;5046924;28;20098;-72
2022/04/23 08:36:18;;;;;;;8.57;4.85;;;;;;;;;;5047042;28;20117;-73
2022/04/23 08:38:44;;;;;;;8.68;5.88;;;;;;;;;;5045349;28;20037;-73
2022/04/23 08:41:11;;;;;;;9.13;5.93;;;;;;;;;;5047910;28;20025;-73
2022/04/23 08:43:37;;;;;;;8.52;5.40;;;;;;;;;;5042817;28;20048;-73
2022/04/23 08:46:03;;;;;;;9.00;6.25;;;;;;;;;;5047573;28;20391;-73
2022/04/23 08:48:38;;;;;;;8.13;5.75;;;;;;;;;;5043705;28;20061;-73
2022/04/23 08:51:07;;;;;;;9.77;5.90;;;;;;;;;;5043638;28;20067;-72
2022/04/23 08:53:35;;;;;;;9.98;6.43;;;;;;;;;;5044732;28;20486;-73
2022/04/23 08:56:01;;;;;;;9.05;6.40;;;;;;;;;;5037510;28;20029;-73
2022/04/23 08:58:28;;;;;;;12.68;7.18;;;;;;;;;;5047335;28;20029;-72
2022/04/23 09:00:54;;;;;;;9.43;6.57;;;;;;;;;;5046994;28;20025;-73
2022/04/23 09:03:20;;;;;;;8.95;6.20;;;;;;;;;;5045939;28;20543;-72
2022/04/23 09:05:50;;;;;;;11.30;6.78;;;;;;;;;;5048332;28;20060;-73
2022/04/23 09:08:17;;;;;;;12.13;7.75;;;;;;;;;;5043998;28;20419;-73
2022/04/23 09:10:47;;;;;;;11.68;8.60;;;;;;;;;;5046561;28;20939;-73
2022/04/23 09:13:25;;;;;;;11.25;7.00;;;;;;;;;;5042361;28;20063;-73
2022/04/23 09:24:42;;;;;;;11.65;9.80;;;;;;;;;;5041430;28;20426;-73
2022/04/23 09:27:08;;;;;;;10.23;8.27;;;;;;;;;;5045998;28;20055;-73
2022/04/23 09:29:34;;;;;;;14.23;9.98;;;;;;;;;;5047428;28;20029;-73
2022/04/23 09:32:11;;;;;;;12.45;9.90;;;;;;;;;;5039531;28;20060;-72
2022/04/23 09:34:38;;;;;;;14.32;10.30;;;;;;;;;;5048373;28;20082;-72
2022/04/23 09:37:05;;;;;;;13.85;10.82;;;;;;;;;;5038810;28;20552;-73
2022/04/23 09:39:35;;;;;;;14.65;11.15;;;;;;;;;;5047765;28;20044;-72
2022/04/23 09:42:17;;;;;;;17.17;12.20;;;;;;;;;;5041261;28;20040;-73
2022/04/23 09:44:43;;;;;;;;;;;;;;;;;;5042266;28;20061;-72
2022/04/23 09:47:09;;;;;;;16.05;13.10;;;;;;;;;;5044249;28;19948;-73
2022/04/23 09:49:35;;;;;;;15.35;10.27;;;;;;;;;;5045356;28;20040;-73
2022/04/23 09:52:05;;;;;;;11.95;9.73;;;;;;;;;;5047907;28;20041;-73
2022/04/23 09:54:31;;;;;;;11.57;8.77;;;;;;;;;;5047868;28;20574;-73
2022/04/23 09:56:58;;;;;;;14.20;9.75;;;;;;;;;;5043306;28;20114;-72
2022/04/23 09:59:23;;;;;;;10.90;8.55;;;;;;;;;;5041813;28;20111;-72
2022/04/23 10:01:50;;;;;;;12.00;9.05;;;;;;;;;;5042622;28;20170;-72
2022/04/23 10:04:34;;;;;;;12.00;8.27;;;;;;;;;;5043342;28;20403;-73
2022/04/23 10:07:01;;;;;;;15.10;9.20;;;;;;;;;;5041234;28;20055;-72
2022/04/23 10:09:28;;;;;;;12.43;8.20;;;;;;;;;;5047574;28;20513;-73
2022/04/23 10:12:16;;;;;;;11.52;7.80;;;;;;;;;;5049824;28;20382;-73
2022/04/23 10:14:46;;;;;;;9.55;6.65;;;;;;;;;;5047464;28;20043;-73
2022/04/23 10:17:15;;;;;;;9.63;7.07;;;;;;;;;;5045798;28;20036;-73
2022/04/23 10:19:42;;;;;;;9.95;7.38;;;;;;;;;;5041932;28;20066;-72
2022/04/23 10:22:14;;;;;;;9.75;6.38;;;;;;;;;;5043069;28;20049;-73
2022/04/23 10:25:22;;;;;;;10.15;7.25;;;;;;;;;;5038694;28;20021;-73
2022/04/23 10:27:49;;;;;;;11.13;7.30;;;;;;;;;;4982629;28;20047;-73
2022/04/23 10:30:15;;;;;;;11.05;6.95;;;;;;;;;;4985509;28;21045;-73
2022/04/23 10:32:42;;;;;;;12.40;7.22;;;;;;;;;;5014477;28;20119;-72
2022/04/23 10:35:20;;;;;;;7.30;5.78;;;;;;;;;;5047158;28;20036;-73
2022/04/23 10:37:49;;;;;;;8.77;7.07;;;;;;;;;;5038329;28;20352;-73
2022/04/23 10:40:17;;;;;;;8.05;6.18;;;;;;;;;;5039814;28;20029;-73
2022/04/23 10:43:02;;;;;;;7.90;5.68;;;;;;;;;;5042042;28;20139;-73
2022/04/23 10:45:34;;;;;;;9.55;5.03;;;;;;;;;;5045125;28;20032;-73
2022/04/23 10:48:25;;;;;;;8.25;5.32;;;;;;;;;;5042502;28;20037;-73
2022/04/23 10:51:01;;;;;;;9.20;5.47;;;;;;;;;;5038528;28;20364;-73
2022/04/23 10:53:28;;;;;;;7.45;5.32;;;;;;;;;;5043030;28;20490;-73
2022/04/23 10:56:06;;;;;;;8.65;5.45;;;;;;;;;;5044226;28;20032;-73
2022/04/23 10:58:33;;;;;;;6.63;4.43;;;;;;;;;;5036417;28;20164;-73
2022/04/23 11:01:20;;;;;;;10.98;4.30;;;;;;;;;;5047359;28;20029;-73
2022/04/23 11:03:50;;;;;;;5.95;3.70;;;;;;;;;;5044347;28;20725;-73
2022/04/23 11:12:18;;;;;;;6.03;3.10;;;;;;;;;;5050216;28;20044;-73
2022/04/23 11:14:46;;;;;;;6.60;3.80;;;;;;;;;;5044842;28;20107;-73
2022/04/23 11:17:13;;;;;;;6.40;3.70;;;;;;;;;;5048307;28;20120;-73
2022/04/23 11:19:39;;;;;;;4.65;2.80;;;;;;;;;;5042112;28;20045;-73
2022/04/23 11:22:06;;;;;;;5.43;3.20;;;;;;;;;;5048342;28;20029;-73
2022/04/23 11:24:32;;;;;;;5.93;3.17;;;;;;;;;;5050287;28;20454;-73
2022/04/23 11:27:00;;;;;;;8.13;5.00;;;;;;;;;;5048365;28;20490;-73
2022/04/23 11:29:27;;;;;;;7.45;4.50;;;;;;;;;;5042574;28;20421;-73
2022/04/23 11:31:56;;;;;;;6.07;3.83;;;;;;;;;;5041704;28;20044;-73
2022/04/23 11:34:22;;;;;;;5.57;3.60;;;;;;;;;;5048501;28;20699;-73
2022/04/23 11:36:48;;;;;;;5.35;2.78;;;;;;;;;;5046237;28;20095;-73
2022/04/23 11:39:15;;;;;;;4.75;2.40;;;;;;;;;;5046967;28;20043;-73
2022/04/23 11:41:48;;;;;;;5.28;2.45;;;;;;;;;;5049202;28;20037;-73
2022/04/23 11:44:15;;;;;;;4.75;2.08;;;;;;;;;;5047352;28;20036;-73
2022/04/23 11:46:42;;;;;;;3.75;1.90;;;;;;;;;;5048279;28;20032;-73
2022/04/23 11:49:08;;;;;;;6.20;1.80;;;;;;;;;;5050082;28;20041;-73
2022/04/23 11:51:34;;;;;;;6.55;2.45;;;;;;;;;;5046077;28;20031;-73
2022/04/23 11:54:00;;;;;;;5.82;2.78;;;;;;;;;;5046712;28;20041;-73
2022/04/23 11:56:33;;;;;;;6.47;2.40;;;;;;;;;;5049470;28;20021;-73
2022/04/23 11:59:04;;;;;;;5.97;3.47;;;;;;;;;;5041995;28;20037;-73
2022/04/23 12:01:30;;;;;;;7.97;5.80;;;;;;;;;;5048719;28;20021;-73
2022/04/23 12:03:57;;;;;;;6.20;4.32;;;;;;;;;;5042441;28;20054;-73
2022/04/23 12:06:23;;;;;;;9.90;6.90;;;;;;;;;;5049049;28;20025;-73
2022/04/23 12:08:49;;;;;;;9.52;6.97;;;;;;;;;;5042229;28;20037;-73
2022/04/23 12:11:23;;;;;;;8.15;6.68;;;;;;;;;;5054156;28;20482;-72
2022/04/23 12:13:50;;;;;;;10.90;6.72;;;;;;;;;;5048654;28;20037;-73
2022/04/23 12:16:31;;;;;;;10.50;6.35;;;;;;;;;;5049239;28;20029;-73
2022/04/23 12:19:04;;;;;;;9.02;6.57;;;;;;;;;;5040991;28;20040;-73
2022/04/23 12:21:31;;;;;;;10.60;6.47;;;;;;;;;;5048732;28;20036;-73
2022/04/23 12:23:57;;;;;;;9.48;7.60;;;;;;;;;;5048481;28;20126;-73
2022/04/23 12:26:24;;;;;;;9.90;7.22;;;;;;;;;;5040527;28;20033;-73
2022/04/23 12:42:26;;;;;;;10.07;7.28;;;;;;;;;;5031588;28;20509;-73
2022/04/23 12:44:53;;;;;;;10.52;7.00;;;;;;;;;;5047798;28;20037;-73
2022/04/23 12:47:34;;;;;;;9.10;6.65;;;;;;;;;;5046672;28;20112;-73
2022/04/23 12:50:06;;;;;;;11.63;6.60;;;;;;;;;;5048966;28;20485;-73
2022/04/23 12:52:44;;;;;;;9.57;7.18;;;;;;;;;;5043261;28;20537;-73
2022/04/23 12:55:13;;;;;;;10.95;6.50;;;;;;;;;;5047740;28;20108;-73
2022/04/23 12:57:43;;;;;;;8.45;5.97;;;;;;;;;;5046539;28;20067;-73
2022/04/23 13:00:11;;;;;;;8.73;5.68;;;;;;;;;;5050996;28;20067;-73
2022/04/23 13:02:37;;;;;;;6.75;5.32;;;;;;;;;;5046501;28;20108;-73
2022/04/23 13:05:05;;;;;;;8.20;5.78;;;;;;;;;;5046276;28;20136;-73
2022/04/23 13:10:15;;;;;;;12.35;5.45;;;;;;;;;;5045398;28;20071;-73
2022/04/23 13:12:41;;;;;;;7.18;4.97;;;;;;;;;;5044258;28;20086;-73
2022/04/23 13:15:07;;;;;;;8.38;4.90;;;;;;;;;;5047407;28;20830;-73
2022/04/23 13:17:34;;;;;;;7.00;4.93;;;;;;;;;;5048601;28;20025;-73
2022/04/23 13:20:01;;;;;;;7.90;4.72;;;;;;;;;;5044484;28;20036;-73
2022/04/23 13:22:28;;;;;;;7.57;4.53;;;;;;;;;;5042108;28;20120;-73
2022/04/23 13:24:54;;;;;;;6.95;4.28;;;;;;;;;;5036614;28;20414;-73
2022/04/23 13:27:20;;;;;;;6.03;3.88;;;;;;;;;;5047062;28;20025;-73
2022/04/23 13:29:46;;;;;;;6.32;3.97;;;;;;;;;;5045562;28;20968;-73
2022/04/23 13:32:12;;;;;;;5.90;3.88;;;;;;;;;;5047314;28;20493;-73
2022/04/23 13:34:38;;;;;;;6.28;3.45;;;;;;;;;;5039694;28;20068;-73
2022/04/23 13:37:04;;;;;;;5.63;3.85;;;;;;;;;;5043337;28;20087;-73
2022/04/23 13:39:30;;;;;;;5.95;3.60;;;;;;;;;;5040256;28;20442;-73
2022/04/23 13:41:56;;;;;;;6.45;3.40;;;;;;;;;;5044135;28;20132;-73
2022/04/23 13:44:23;;;;;;;6.47;3.35;;;;;;;;;;5045675;28;20044;-73
2022/04/23 13:46:51;;;;;;;4.93;2.95;;;;;;;;;;5041617;28;20025;-73
2022/04/23 13:49:17;;;;;;;6.65;4.30;;;;;;;;;;5045463;28;20036;-73
2022/04/23 13:51:43;;;;;;;5.70;3.13;;;;;;;;;;5045523;28;20029;-73
2022/04/23 13:54:09;;;;;;;5.25;3.38;;;;;;;;;;5046619;28;20044;-73
2022/04/23 13:56:35;;;;;;;5.03;3.20;;;;;;;;;;5044052;28;20032;-73
2022/04/23 13:59:01;;;;;;;4.25;2.72;;;;;;;;;;5046492;28;20036;-73
2022/04/23 14:01:27;;;;;;;6.28;3.58;;;;;;;;;;5047840;28;20029;-73
2022/04/23 14:12:07;;;;;;;6.45;3.45;;;;;;;;;;5044196;28;20090;-73
2022/04/23 14:14:33;;;;;;;5.68;3.60;;;;;;;;;;5039651;28;20367;-73
2022/04/23 14:16:59;;;;;;;5.80;3.05;;;;;;;;;;5043665;28;20037;-73
2022/04/23 14:19:25;;;;;;;5.88;3.75;;;;;;;;;;5038395;28;20132;-73
2022/04/23 14:21:51;;;;;;;8.68;3.90;;;;;;;;;;5046809;28;20306;-73
2022/04/23 14:24:17;;;;;;;6.13;3.80;;;;;;;;;;5042690;28;20076;-73
2022/04/23 14:26:43;;;;;;;6.68;4.50;;;;;;;;;;5035750;28;20369;-73
2022/04/23 14:29:09;;;;;;;5.45;3.42;;;;;;;;;;5041983;28;20036;-73
2022/04/23 14:31:35;;;;;;;5.53;4.25;;;;;;;;;;5043388;28;20029;-73
2022/04/23 14:34:01;;;;;;;6.05;3.22;;;;;;;;;;5047433;28;20462;-73
2022/04/23 14:36:29;;;;;;;6.18;3.67;;;;;;;;;;5046689;28;20027;-73
2022/04/23 14:38:55;;;;;;;5.40;3.30;;;;;;;;;;5038607;28;20033;-73
2022/04/23 14:41:23;;;;;;;7.07;3.83;;;;;;;;;;5046238;28;20025;-73
2022/04/23 14:43:49;;;;;;;5.78;2.70;;;;;;;;;;5042700;28;20128;-73
2022/04/23 14:46:15;;;;;;;5.18;2.78;;;;;;;;;;5038778;28;20798;-73
2022/04/23 14:48:43;;;;;;;6.28;3.38;;;;;;;;;;5045175;28;20037;-73
2022/04/23 14:53:54;;;;;;;6.05;2.78;;;;;;;;;;5043408;28;20048;-73
2022/04/23 14:56:21;;;;;;;3.97;2.70;;;;;;;;;;5046663;28;20115;-73
2022/04/23 14:58:47;;;;;;;6.47;3.15;;;;;;;;;;5041311;28;20521;-73
2022/04/23 15:01:13;;;;;;;4.07;2.92;;;;;;;;;;5039631;28;20111;-73
2022/04/23 15:03:39;;;;;;;4.97;2.40;;;;;;;;;;5045565;28;20608;-73
2022/04/23 15:06:05;;;;;;;4.75;2.40;;;;;;;;;;5045515;28;20025;-73
2022/04/23 15:08:31;;;;;;;6.82;2.88;;;;;;;;;;5042748;28;20065;-73
2022/04/23 15:10:58;;;;;;;6.97;2.67;;;;;;;;;;5046248;28;20501;-73
2022/04/23 15:13:24;;;;;;;4.65;2.60;;;;;;;;;;5045907;28;20534;-73
2022/04/23 15:15:50;;;;;;;4.82;2.10;;;;;;;;;;5045466;28;20036;-73
2022/04/23 15:18:16;;;;;;;5.18;2.17;;;;;;;;;;5043682;28;20045;-73
2022/04/23 15:20:42;;;;;;;4.53;2.72;;;;;;;;;;5039809;28;20443;-73
2022/04/23 15:23:09;;;;;;;4.25;2.35;;;;;;;;;;5049430;28;20470;-73
2022/04/23 15:25:35;;;;;;;5.10;2.95;;;;;;;;;;5043293;28;20070;-73
2022/04/23 15:28:04;;;;;;;5.68;2.97;;;;;;;;;;5045854;28;20032;-73
2022/04/23 15:30:30;;;;;;;5.65;2.78;;;;;;;;;;5044140;28;20457;-73
2022/04/23 15:32:56;;;;;;;5.00;2.60;;;;;;;;;;5040394;28;20040;-73
2022/04/23 15:35:23;;;;;;;4.90;2.72;;;;;;;;;;5046643;28;20044;-73